createdAt,value
2019-04-21T00:01:50.556Z,74.80
2019-04-21T00:07:14.450Z,68.30
2019-04-21T00:12:17.969Z,64.77
2019-04-21T00:17:12.927Z,59.70
2019-04-21T00:22:29.332Z,58.90
2019-04-21T00:27:39.841Z,51.77
2019-04-21T00:32:40.521Z,46.30
2019-04-21T00:37:53.485Z,44.00
2019-04-21T00:43:01.389Z,43.63
2019-04-21T00:48:13.055Z,39.23
2019-04-21T00:53:24.651Z,39.93
2019-04-21T00:58:33.115Z,39.03
2019-04-21T01:03:36.182Z,38.97
2019-04-21T01:08:42.673Z,41.07
2019-04-21T01:13:51.979Z,40.27
2019-04-21T01:18:49.290Z,41.30
2019-04-21T01:23:40.179Z,41.03
2019-04-21T01:29:01.513Z,42.13
2019-04-21T01:34:12.945Z,39.13
2019-04-21T01:39:20.004Z,39.77
2019-04-21T01:44:31.293Z,39.97
2019-04-21T01:49:25.837Z,39.87
2019-04-21T01:55:04.912Z,40.83
2019-04-21T01:59:54.938Z,39.43
2019-04-21T02:05:17.226Z,42.17
2019-04-21T02:10:21.115Z,40.37
2019-04-21T02:15:32.571Z,41.60
2019-04-21T02:20:24.482Z,40.40
2019-04-21T02:25:38.384Z,37.77
2019-04-21T02:36:18.982Z,40.60
2019-04-21T02:41:11.239Z,39.90
2019-04-21T02:46:23.636Z,40.87
2019-04-21T02:51:28.125Z,40.97
2019-04-21T02:56:34.466Z,37.53
2019-04-21T03:01:56.737Z,40.77
2019-04-21T03:07:09.393Z,41.10
2019-04-21T03:12:12.540Z,37.57
2019-04-21T03:17:26.672Z,38.13
2019-04-21T03:22:38.200Z,38.97
2019-04-21T03:33:08.319Z,34.50
2019-04-21T03:42:51.400Z,33.40
2019-04-21T03:47:55.152Z,30.60
2019-04-21T03:53:03.512Z,33.57
2019-04-21T04:03:51.824Z,33.27
2019-04-21T04:09:12.843Z,36.20
2019-04-21T04:14:12.846Z,35.77
2019-04-21T04:19:34.430Z,34.00
2019-04-21T04:24:34.074Z,36.40
2019-04-21T04:29:26.438Z,34.53
2019-04-21T04:34:40.541Z,34.23
2019-04-21T04:40:10.901Z,35.83
2019-04-21T04:50:22.639Z,38.13
2019-04-21T04:55:06.805Z,42.77
2019-04-21T05:00:28.246Z,48.80
2019-04-21T05:05:38.102Z,44.20
2019-04-21T05:10:41.693Z,43.13
2019-04-21T05:15:38.370Z,40.30
2019-04-21T05:20:58.970Z,41.23
2019-04-21T05:25:37.717Z,35.67
2019-04-21T05:31:06.228Z,36.20
2019-04-21T05:36:30.889Z,35.10
2019-04-21T05:41:26.622Z,35.70
2019-04-21T05:46:52.328Z,36.33
2019-04-21T05:51:57.499Z,33.77
2019-04-21T05:57:08.653Z,34.03
2019-04-21T06:02:30.242Z,33.63
2019-04-21T06:12:35.992Z,36.47
2019-04-21T06:22:46.717Z,37.07
2019-04-21T06:27:52.651Z,36.50
2019-04-21T06:32:58.372Z,35.17
2019-04-21T06:38:11.664Z,36.80
2019-04-21T06:43:29.596Z,36.50
2019-04-21T06:48:20.765Z,37.53
2019-04-21T06:53:30.623Z,36.00
2019-04-21T06:58:32.831Z,36.20
2019-04-21T07:03:45.562Z,39.43
2019-04-21T07:08:56.528Z,36.97
2019-04-21T07:13:55.226Z,35.73
2019-04-21T07:19:09.788Z,34.07
2019-04-21T07:29:14.278Z,32.40
2019-04-21T07:39:27.124Z,31.40
2019-04-21T07:44:31.831Z,29.47
2019-04-21T07:49:59.188Z,30.60
2019-04-21T07:55:16.663Z,28.80
2019-04-21T08:10:22.503Z,31.23
2019-04-21T08:15:33.949Z,31.43
2019-04-21T08:20:38.270Z,29.67
2019-04-21T08:25:47.658Z,27.50
2019-04-21T08:30:47.348Z,29.97
2019-04-21T08:41:01.962Z,30.00
2019-04-21T08:46:05.447Z,25.70
2019-04-21T08:51:28.931Z,24.93
2019-04-21T08:56:49.633Z,23.57
2019-04-21T09:02:18.239Z,22.13
2019-04-21T09:12:21.248Z,22.40
2019-04-21T09:17:25.105Z,20.13
2019-04-21T09:22:35.872Z,19.10
2019-04-21T09:27:42.030Z,19.97
2019-04-21T09:32:36.328Z,21.63
2019-04-21T09:37:49.432Z,21.50
2019-04-21T09:42:54.179Z,19.37
2019-04-21T09:48:00.802Z,18.10
2019-04-21T09:53:10.442Z,21.70
2019-04-21T09:58:15.106Z,19.20
2019-04-21T10:03:15.773Z,21.20
2019-04-21T10:08:19.910Z,18.23
2019-04-21T10:13:25.332Z,16.47
2019-04-21T10:18:31.652Z,14.90
2019-04-21T10:23:36.768Z,14.50
2019-04-21T10:28:43.312Z,15.70
2019-04-21T10:33:48.722Z,14.40
2019-04-21T10:38:55.217Z,10.57
2019-04-21T10:44:00.997Z,11.17
2019-04-21T10:49:06.530Z,12.33
2019-04-21T10:54:11.768Z,14.43
2019-04-21T10:59:18.281Z,23.67
2019-04-21T11:04:36.333Z,34.90
2019-04-21T11:09:37.916Z,15.93
2019-04-21T11:14:43.148Z,13.80
2019-04-21T11:19:48.595Z,297.30
2019-04-21T11:24:53.705Z,161.83
2019-04-21T11:29:59.830Z,35.60
2019-04-21T11:35:05.322Z,17.53
2019-04-21T11:40:14.352Z,8.60
2019-04-21T11:45:28.604Z,8.23
2019-04-21T11:50:34.981Z,8.37
2019-04-21T11:55:43.570Z,7.97
2019-04-21T12:00:50.907Z,8.63
2019-04-21T12:05:57.341Z,8.30
2019-04-21T12:11:03.274Z,8.30
2019-04-21T12:16:10.683Z,7.23
2019-04-21T12:21:16.371Z,9.10
2019-04-21T12:26:22.116Z,9.23
2019-04-21T12:31:59.433Z,10.30
2019-04-21T12:37:04.692Z,10.13
2019-04-21T12:42:10.105Z,9.37
2019-04-21T12:47:16.216Z,9.73
2019-04-21T12:52:21.841Z,9.43
2019-04-21T12:57:28.713Z,9.50
2019-04-21T13:02:33.853Z,9.20
2019-04-21T13:07:39.580Z,9.57
2019-04-21T13:12:45.889Z,10.40
2019-04-21T13:17:52.234Z,10.10
2019-04-21T13:22:57.839Z,9.77
2019-04-21T13:28:03.178Z,10.13
2019-04-21T13:33:09.210Z,10.17
2019-04-21T13:38:23.121Z,8.97
2019-04-21T13:43:21.395Z,8.03
2019-04-21T13:48:26.539Z,9.37
2019-04-21T13:53:33.079Z,8.37
2019-04-21T13:58:38.505Z,8.10
2019-04-21T14:03:44.012Z,8.47
2019-04-21T14:08:51.210Z,8.40
2019-04-21T14:13:58.595Z,8.27
2019-04-21T14:19:03.568Z,8.60
2019-04-21T14:24:08.921Z,8.27
2019-04-21T14:29:15.495Z,8.90
2019-04-21T14:34:21.829Z,9.07
2019-04-21T14:39:28.248Z,8.37
2019-04-21T14:44:33.481Z,8.57
2019-04-21T14:50:00.241Z,8.17
2019-04-21T14:55:16.532Z,8.00
2019-04-21T15:00:22.887Z,7.30
2019-04-21T15:05:29.331Z,6.33
2019-04-21T15:10:35.197Z,6.23
2019-04-21T15:15:41.441Z,6.23
2019-04-21T15:20:48.618Z,5.10
2019-04-21T15:25:54.320Z,4.93
2019-04-21T15:31:01.266Z,4.70
2019-04-21T15:36:07.099Z,4.20
2019-04-21T15:41:12.721Z,5.20
2019-04-21T15:46:18.489Z,4.47
2019-04-21T15:51:23.954Z,4.67
2019-04-21T15:56:49.077Z,4.50
2019-04-21T16:02:12.657Z,4.70
2019-04-21T16:07:18.066Z,9.43
2019-04-21T16:12:23.145Z,3.67
2019-04-21T16:17:29.507Z,4.40
2019-04-21T16:22:34.917Z,4.17
2019-04-21T16:27:41.130Z,3.90
2019-04-21T16:32:46.440Z,4.20
2019-04-21T16:37:54.249Z,3.63
2019-04-21T16:42:58.431Z,3.93
2019-04-21T16:48:03.509Z,3.03
2019-04-21T16:53:23.989Z,2.93
2019-04-21T16:58:42.925Z,2.87
2019-04-21T17:03:48.585Z,2.17
2019-04-21T17:08:54.684Z,2.70
2019-04-21T17:14:00.467Z,2.80
2019-04-21T17:19:14.670Z,2.20
2019-04-21T17:24:16.710Z,5.70
2019-04-21T17:29:20.874Z,2.00
2019-04-21T17:34:28.848Z,2.13
2019-04-21T17:39:34.499Z,2.30
2019-04-21T17:44:39.648Z,2.80
2019-04-21T17:49:46.732Z,3.80
2019-04-21T17:55:10.333Z,4.77
2019-04-21T18:00:49.402Z,5.40
2019-04-21T18:05:38.913Z,6.13
2019-04-21T18:10:42.184Z,6.20
2019-04-21T18:15:49.301Z,7.37
2019-04-21T18:20:41.938Z,6.83
2019-04-21T18:25:54.909Z,6.73
2019-04-21T18:31:00.473Z,6.97
2019-04-21T18:36:30.259Z,7.77
2019-04-21T18:41:41.033Z,7.33
2019-04-21T18:47:29.066Z,8.00
2019-04-21T18:52:32.618Z,7.03
2019-04-21T18:57:35.277Z,7.60
2019-04-21T19:02:42.632Z,7.40
2019-04-21T19:08:03.003Z,7.07
2019-04-21T19:13:29.031Z,7.10
2019-04-21T19:23:19.194Z,6.63
2019-04-21T19:28:27.076Z,7.27
2019-04-21T19:33:30.061Z,6.53
2019-04-21T19:38:30.589Z,6.23
2019-04-21T19:43:49.161Z,6.90
2019-04-21T19:49:01.178Z,6.00
2019-04-21T19:53:55.046Z,5.87
2019-04-21T19:58:49.281Z,6.43
2019-04-21T20:03:58.867Z,6.33
2019-04-21T20:09:19.428Z,6.27
2019-04-21T20:19:16.211Z,6.23
2019-04-21T20:24:26.545Z,5.90
2019-04-21T20:29:44.593Z,5.60
2019-04-21T20:34:56.312Z,6.07
2019-04-21T20:39:47.333Z,5.97
2019-04-21T20:45:22.051Z,6.00
2019-04-21T20:50:08.354Z,6.53
2019-04-21T20:55:14.500Z,6.27
2019-04-21T21:00:32.599Z,5.83
2019-04-21T21:05:27.411Z,6.20
2019-04-21T21:10:38.735Z,5.77
2019-04-21T21:16:01.142Z,5.87
2019-04-21T21:20:59.314Z,6.20
2019-04-21T21:26:09.497Z,6.53
2019-04-21T21:31:25.144Z,6.63
2019-04-21T21:36:19.588Z,6.73
2019-04-21T21:41:16.341Z,6.63
2019-04-21T21:46:35.126Z,6.27
2019-04-21T21:51:39.256Z,6.93
2019-04-21T21:56:30.063Z,6.37
2019-04-21T22:01:38.872Z,7.60
2019-04-21T22:06:50.706Z,5.87
2019-04-21T22:11:53.607Z,7.43
2019-04-21T22:17:10.961Z,7.67
2019-04-21T22:22:21.557Z,8.07
2019-04-21T22:27:09.471Z,8.07
2019-04-21T22:32:19.182Z,8.43
2019-04-21T22:37:36.775Z,8.20
2019-04-21T22:42:33.192Z,8.97
2019-04-21T22:47:39.269Z,9.23
2019-04-21T22:52:41.697Z,9.47
2019-04-21T22:57:51.129Z,10.80
2019-04-21T23:03:03.161Z,10.73
2019-04-21T23:08:03.425Z,11.13
2019-04-21T23:13:11.213Z,10.37
2019-04-21T23:18:30.477Z,10.23
2019-04-21T23:23:42.314Z,10.33
2019-04-21T23:28:45.462Z,10.37
2019-04-21T23:33:34.562Z,11.10
2019-04-21T23:38:44.122Z,10.27
2019-04-21T23:43:53.145Z,10.47
2019-04-21T23:49:07.459Z,11.10
2019-04-21T23:53:59.887Z,11.27
2019-04-21T23:59:07.477Z,10.83
